la region d' Aire sur la Lys (62) - A Senior H

Date : 19/09/2015
Distance : 2,500 km

Place Nom Licence Catégorie Club Temps min/km CN à J-60 Points Différence Nouveau CN
1 JOLY François 14909 H21 5907NO 0:13:47 5'30 8213 6693 -1520 7999
2 FUMEY Clément 12868 H21 2105BO 0:14:24 5'45 7534 6407 -1127 7759
3 DANEL Jerome 16280 H40 5906NO 0:14:51 5'56 6517 6213 -304 6657
4 LALOUX Clément 22447 H20 5907NO 0:15:15 6'06 6013 6050 +37 6184
5 MAHIEU Pierre 6999 H21 5907NO 0:15:37 6'14 6303 5908 -395 6284
6 LENOBLE Lou 23559 D18 6208NO 0:15:48 6'19 5693 5839 +146 5788
7 NAPIERALA Nicolas 26424 H20 5907NO 0:16:02 6'24 5844 5754 -90 5888
8 GUILBERT Nicolas 24196 H35 6208NO 0:16:10 6'28 5676 5707 +31 5746
9 CHAPUS Stanislas 20405 H45 6205NO 0:16:18 6'31 6075 5660 -415 6066
10 PAILLEUX Steeven 22347 H21 6203NO 0:16:29 6'35 5934 5597 -337 5934
11 DELCUSE Vincent 27703 H40 6205NO 0:16:35 6'38 5167 5563 +396 5243
12 VARIN Jérôme 31496 H45 5906NO 0:16:36 6'38 5558 0
13 LEGERE Pascal 8081 H50 5906NO 0:16:46 6'42 6087 5502 -585 5995
14 TSIRTSIKOLOU Arnaud 20178 H40 6205NO 0:16:48 6'43 6107 5491 -616 5647
15 POULAIN Joel 1947 H55 5909NO 0:16:51 6'44 6244 5475 -769 6267
16 FLANDRIN Gautier 13756 H35 6208NO 0:17:00 6'48 5945 5427 -518 5929
17 URVOY Martial 23615 H40 6203NO 0:17:06 6'50 5293 5395 +102 5314
18 DELCUSE Sébastien 22373 H20 6205NO 0:17:06 6'50 6135 5395 -740 6068
19 ROLIN David 23948 H40 6208NO 0:17:10 6'52 4969 5374 +405 5065
20 GOBERT Alain 19699 H50 5906NO 0:17:24 6'57 4124 5302 +1178 4577
21 BECUWE Yannick 28966 H40 5909NO 0:17:30 7'00 4651 5272 +621 4746
22 VITTU Samuel 28482 H35 6203NO 0:17:32 7'00 4927 5262 +335 5076
23 CLAIRET Richard 16397 H40 6205NO 0:17:33 7'01 5533 5257 -276 5463
24 RICQUEBOURG Axel 18448 H35 5906NO 0:17:46 7'06 4066 5193 +1127 4997
25 MAERTELAERE Hugues 17686 H45 5906NO 0:17:46 7'06 5193 0
26 SCHIMPF Laurent 18786 H45 5909NO 0:17:47 7'06 5345 5188 -157 5394
27 WAMBRE Franck 19473 H35 5906NO 0:17:57 7'10 0 5140 4934
28 GRESSIER Laurent 23703 H45 6208NO 0:18:08 7'15 4185 5088 +903 4630
29 THOMAS Pascal 15884 H50 6207NO 0:18:22 7'20 5042 5023 -19 5084
30 TESSIER Patrick 17572 H50 5907NO 0:19:01 7'36 4104 4851 +747 4253
31 BIZOT Laurent 16281 H50 5906NO 0:19:11 7'40 4440 4809 +369 4461
32 DESSAILLY David 26053 H40 5909NO 0:19:13 7'41 4939 4801 -138 4961
33 SENCE Stephane 16450 H40 5906NO 0:19:36 7'50 4815 4707 -108 4815
34 GRIMBERT Hervé 16398 H55 5907NO 0:19:41 7'52 4344 4687 +343 4532
35 RAU Hervé 25624 H40 5909NO 0:19:54 7'57 4255 4636 +381 4530
36 LOTERIE Jean-Francois 5421 H50 5907NO 0:19:56 7'58 5555 4628 -927 5635
37 DICKBURT Michel 2822 H50 5906NO 0:19:57 7'58 5217 4624 -593 5180
38 CASTIER Philippe 12963 H55 6208NO 0:20:04 8'01 5138 4597 -541 5117
39 PAPIN Philippe 10079 H50 5906NO 0:20:08 8'03 4983 4582 -401 5009
40 CZERNIAK Jérome 13271 H40 6205NO 0:20:20 8'08 5102 4537 -565 5120
41 BOUTIN Dominique 13838 H50 6205NO 0:20:40 8'16 4714 4464 -250 4617
42 DELINSELLE Alexis 20676 H35 5907NO 0:21:08 8'27 4410 4365 -45 4295
43 JANQUIN Philippe 27608 H45 6203NO 0:21:44 8'41 4616 4245 -371 4616
44 DUTERAGE Christian 20384 H45 7807IF 0:22:03 8'49 3484 4184 +700 3773
45 BAYARD OLIVIER 28824 H40 6208NO 0:22:23 8'57 0 4122 3570
46 PEDOUSSAT Julien 24460 H35 5909NO 0:25:25 10'10 3436 3630 +194 3436
47 WULLUS J-Noel 9523 H60 5907NO 0:26:57 10'46 3137 3423 +286 3297
48 CHOPIN Olivier 29939 H40 6203NO 0:28:29 11'23 3048 3239 +191 3152
49 DEVIENNE Bernard 30880 H40 5906NO 0:29:04 11'37 1044 3174 +2130 1732
50 EJSMONT Jean 5597 H65 6203NO 0:29:46 11'54 0 3099 3118
51 GERBEAUX Jean-paul 23596 H65 6205NO 0:31:47 12'42 3890 2903 -987 3940
52 SALINGUE VINCENT 31238 H40 6203NO 0:38:35 15'26 1966 2391 +425 2134
53 PERETTI Serge 29320 H45 6203NO 0:42:54 17'09 841 2150 +1309 1637
LECENDRE Olivier 20440 H40 6205NO pm None 5758 0 5758
nc PRUVOST Stephane 22302 H40 6208NO 0:17:18 6'55
nc MAMET Ludovic 20741 H45 5906NO 0:18:25 7'22